sensor_id;sensor_type;location;lat;lon;timestamp;P1;durP1;ratioP1;P2;durP2;ratioP2
18820;SDS011;9539;59.332;18.034;2022-12-01T00:02:19;8.68;;;6.10;;
18820;SDS011;9539;59.332;18.034;2022-12-01T00:04:46;11.00;;;7.07;;
18820;SDS011;9539;59.332;18.034;2022-12-01T00:07:13;7.18;;;5.13;;
18820;SDS011;9539;59.332;18.034;2022-12-01T00:09:41;9.52;;;5.85;;
18820;SDS011;9539;59.332;18.034;2022-12-01T00:12:25;9.48;;;6.40;;
18820;SDS011;9539;59.332;18.034;2022-12-01T00:14:52;7.60;;;6.03;;
18820;SDS011;9539;59.332;18.034;2022-12-01T00:17:24;7.32;;;5.78;;
18820;SDS011;9539;59.332;18.034;2022-12-01T00:19:52;7.32;;;5.57;;
18820;SDS011;9539;59.332;18.034;2022-12-01T00:22:19;6.65;;;5.25;;
18820;SDS011;9539;59.332;18.034;2022-12-01T00:24:47;6.57;;;5.13;;
18820;SDS011;9539;59.332;18.034;2022-12-01T00:27:14;6.20;;;5.20;;
18820;SDS011;9539;59.332;18.034;2022-12-01T00:29:41;6.65;;;5.05;;
18820;SDS011;9539;59.332;18.034;2022-12-01T00:32:08;5.95;;;5.25;;
18820;SDS011;9539;59.332;18.034;2022-12-01T00:34:34;6.35;;;5.07;;
18820;SDS011;9539;59.332;18.034;2022-12-01T00:37:02;6.35;;;5.10;;
18820;SDS011;9539;59.332;18.034;2022-12-01T00:39:28;6.82;;;5.50;;
18820;SDS011;9539;59.332;18.034;2022-12-01T00:41:56;6.22;;;4.88;;
18820;SDS011;9539;59.332;18.034;2022-12-01T00:44:23;6.55;;;4.97;;
18820;SDS011;9539;59.332;18.034;2022-12-01T00:46:50;8.57;;;5.32;;
18820;SDS011;9539;59.332;18.034;2022-12-01T00:49:17;6.85;;;5.43;;
18820;SDS011;9539;59.332;18.034;2022-12-01T00:51:43;8.18;;;6.13;;
18820;SDS011;9539;59.332;18.034;2022-12-01T00:54:10;7.55;;;6.03;;
18820;SDS011;9539;59.332;18.034;2022-12-01T00:56:37;5.93;;;5.30;;
18820;SDS011;9539;59.332;18.034;2022-12-01T00:59:05;8.02;;;6.00;;
18820;SDS011;9539;59.332;18.034;2022-12-01T01:01:32;7.75;;;5.55;;
18820;SDS011;9539;59.332;18.034;2022-12-01T01:03:59;7.78;;;5.90;;
18820;SDS011;9539;59.332;18.034;2022-12-01T01:06:26;6.05;;;4.40;;
18820;SDS011;9539;59.332;18.034;2022-12-01T01:08:52;7.88;;;5.40;;
18820;SDS011;9539;59.332;18.034;2022-12-01T01:11:19;5.97;;;4.82;;
18820;SDS011;9539;59.332;18.034;2022-12-01T01:13:46;6.00;;;4.93;;
18820;SDS011;9539;59.332;18.034;2022-12-01T01:16:15;3.83;;;3.40;;
18820;SDS011;9539;59.332;18.034;2022-12-01T01:18:44;4.13;;;3.30;;
18820;SDS011;9539;59.332;18.034;2022-12-01T01:21:13;4.65;;;3.97;;
18820;SDS011;9539;59.332;18.034;2022-12-01T01:23:41;4.47;;;3.88;;
18820;SDS011;9539;59.332;18.034;2022-12-01T01:26:09;6.65;;;4.20;;
18820;SDS011;9539;59.332;18.034;2022-12-01T01:28:38;4.55;;;3.95;;
18820;SDS011;9539;59.332;18.034;2022-12-01T01:31:06;4.45;;;3.80;;
18820;SDS011;9539;59.332;18.034;2022-12-01T01:33:36;4.57;;;3.97;;
18820;SDS011;9539;59.332;18.034;2022-12-01T01:36:03;4.20;;;3.67;;
18820;SDS011;9539;59.332;18.034;2022-12-01T01:38:31;4.00;;;3.58;;
18820;SDS011;9539;59.332;18.034;2022-12-01T01:40:59;4.10;;;3.70;;
18820;SDS011;9539;59.332;18.034;2022-12-01T01:43:41;3.33;;;3.03;;
18820;SDS011;9539;59.332;18.034;2022-12-01T01:46:13;3.85;;;3.35;;
18820;SDS011;9539;59.332;18.034;2022-12-01T01:48:44;3.63;;;3.30;;
18820;SDS011;9539;59.332;18.034;2022-12-01T01:51:15;3.17;;;2.88;;
18820;SDS011;9539;59.332;18.034;2022-12-01T01:53:45;3.78;;;3.40;;
18820;SDS011;9539;59.332;18.034;2022-12-01T01:56:17;3.47;;;3.10;;
18820;SDS011;9539;59.332;18.034;2022-12-01T01:58:43;4.18;;;3.78;;
18820;SDS011;9539;59.332;18.034;2022-12-01T02:01:11;5.28;;;3.70;;
18820;SDS011;9539;59.332;18.034;2022-12-01T02:03:37;4.95;;;3.72;;
18820;SDS011;9539;59.332;18.034;2022-12-01T02:06:08;4.57;;;3.55;;
18820;SDS011;9539;59.332;18.034;2022-12-01T02:08:36;5.00;;;3.75;;
18820;SDS011;9539;59.332;18.034;2022-12-01T02:11:16;4.57;;;3.92;;
18820;SDS011;9539;59.332;18.034;2022-12-01T02:14:14;5.50;;;4.20;;
18820;SDS011;9539;59.332;18.034;2022-12-01T02:16:55;5.45;;;4.18;;
18820;SDS011;9539;59.332;18.034;2022-12-01T02:22:28;5.00;;;4.18;;
18820;SDS011;9539;59.332;18.034;2022-12-01T02:31:07;7.75;;;4.80;;
18820;SDS011;9539;59.332;18.034;2022-12-01T02:33:41;6.43;;;5.13;;
18820;SDS011;9539;59.332;18.034;2022-12-01T02:36:13;5.53;;;4.93;;
18820;SDS011;9539;59.332;18.034;2022-12-01T02:38:45;5.95;;;4.82;;
18820;SDS011;9539;59.332;18.034;2022-12-01T02:41:21;6.63;;;5.30;;
18820;SDS011;9539;59.332;18.034;2022-12-01T02:43:55;6.70;;;5.25;;
18820;SDS011;9539;59.332;18.034;2022-12-01T02:46:28;6.88;;;5.90;;
18820;SDS011;9539;59.332;18.034;2022-12-01T02:49:01;7.97;;;5.95;;
18820;SDS011;9539;59.332;18.034;2022-12-01T02:51:31;6.05;;;5.22;;
18820;SDS011;9539;59.332;18.034;2022-12-01T02:54:01;7.53;;;5.18;;
18820;SDS011;9539;59.332;18.034;2022-12-01T02:56:30;6.95;;;6.00;;
18820;SDS011;9539;59.332;18.034;2022-12-01T02:58:57;7.47;;;5.63;;
18820;SDS011;9539;59.332;18.034;2022-12-01T03:01:34;6.90;;;5.00;;
18820;SDS011;9539;59.332;18.034;2022-12-01T03:04:21;6.20;;;4.97;;
18820;SDS011;9539;59.332;18.034;2022-12-01T03:07:05;6.90;;;5.57;;
18820;SDS011;9539;59.332;18.034;2022-12-01T03:09:40;6.30;;;5.07;;
18820;SDS011;9539;59.332;18.034;2022-12-01T03:12:18;6.20;;;5.05;;
18820;SDS011;9539;59.332;18.034;2022-12-01T03:14:50;7.07;;;5.38;;
18820;SDS011;9539;59.332;18.034;2022-12-01T03:17:32;7.35;;;5.65;;
18820;SDS011;9539;59.332;18.034;2022-12-01T03:20:05;7.10;;;5.45;;
18820;SDS011;9539;59.332;18.034;2022-12-01T03:22:39;6.53;;;5.80;;
18820;SDS011;9539;59.332;18.034;2022-12-01T03:25:09;8.27;;;6.22;;
18820;SDS011;9539;59.332;18.034;2022-12-01T03:27:39;6.82;;;5.50;;
18820;SDS011;9539;59.332;18.034;2022-12-01T03:30:09;6.80;;;5.55;;
18820;SDS011;9539;59.332;18.034;2022-12-01T03:32:40;8.73;;;6.20;;
18820;SDS011;9539;59.332;18.034;2022-12-01T03:35:13;7.30;;;6.10;;
18820;SDS011;9539;59.332;18.034;2022-12-01T03:37:45;8.25;;;6.00;;
18820;SDS011;9539;59.332;18.034;2022-12-01T03:40:19;8.20;;;6.03;;
18820;SDS011;9539;59.332;18.034;2022-12-01T03:42:51;7.43;;;5.25;;
18820;SDS011;9539;59.332;18.034;2022-12-01T03:45:27;8.15;;;5.60;;
18820;SDS011;9539;59.332;18.034;2022-12-01T03:48:00;8.57;;;6.70;;
18820;SDS011;9539;59.332;18.034;2022-12-01T03:50:29;7.65;;;6.18;;
18820;SDS011;9539;59.332;18.034;2022-12-01T03:53:03;7.25;;;5.88;;
18820;SDS011;9539;59.332;18.034;2022-12-01T03:55:35;9.38;;;5.45;;
18820;SDS011;9539;59.332;18.034;2022-12-01T03:58:06;6.28;;;5.00;;
18820;SDS011;9539;59.332;18.034;2022-12-01T04:00:37;6.80;;;5.57;;
18820;SDS011;9539;59.332;18.034;2022-12-01T04:03:07;8.20;;;5.70;;
18820;SDS011;9539;59.332;18.034;2022-12-01T04:05:43;6.35;;;5.40;;
18820;SDS011;9539;59.332;18.034;2022-12-01T04:08:10;6.75;;;5.35;;
18820;SDS011;9539;59.332;18.034;2022-12-01T04:10:36;5.85;;;5.05;;
18820;SDS011;9539;59.332;18.034;2022-12-01T04:13:03;5.82;;;4.60;;
18820;SDS011;9539;59.332;18.034;2022-12-01T04:15:29;5.95;;;4.80;;
18820;SDS011;9539;59.332;18.034;2022-12-01T04:17:55;5.00;;;4.50;;
18820;SDS011;9539;59.332;18.034;2022-12-01T04:20:23;4.90;;;4.40;;
18820;SDS011;9539;59.332;18.034;2022-12-01T04:22:50;5.18;;;4.60;;
18820;SDS011;9539;59.332;18.034;2022-12-01T04:25:17;5.15;;;4.65;;
18820;SDS011;9539;59.332;18.034;2022-12-01T04:27:44;5.97;;;4.50;;
18820;SDS011;9539;59.332;18.034;2022-12-01T04:30:11;5.90;;;4.55;;
18820;SDS011;9539;59.332;18.034;2022-12-01T04:32:38;4.72;;;4.10;;
18820;SDS011;9539;59.332;18.034;2022-12-01T04:35:06;5.22;;;4.18;;
18820;SDS011;9539;59.332;18.034;2022-12-01T04:37:36;4.75;;;4.25;;
18820;SDS011;9539;59.332;18.034;2022-12-01T04:40:04;5.38;;;4.65;;
18820;SDS011;9539;59.332;18.034;2022-12-01T04:42:32;5.70;;;4.38;;
18820;SDS011;9539;59.332;18.034;2022-12-01T04:44:59;6.68;;;5.32;;
18820;SDS011;9539;59.332;18.034;2022-12-01T04:47:26;6.30;;;5.10;;
18820;SDS011;9539;59.332;18.034;2022-12-01T04:49:52;6.25;;;4.60;;
18820;SDS011;9539;59.332;18.034;2022-12-01T04:52:19;7.22;;;4.72;;
18820;SDS011;9539;59.332;18.034;2022-12-01T04:54:47;7.00;;;5.03;;
18820;SDS011;9539;59.332;18.034;2022-12-01T04:57:14;5.72;;;4.97;;
18820;SDS011;9539;59.332;18.034;2022-12-01T04:59:41;6.35;;;4.90;;
18820;SDS011;9539;59.332;18.034;2022-12-01T05:02:07;5.30;;;4.32;;
18820;SDS011;9539;59.332;18.034;2022-12-01T05:04:34;5.75;;;4.90;;
18820;SDS011;9539;59.332;18.034;2022-12-01T05:07:02;5.82;;;4.63;;
18820;SDS011;9539;59.332;18.034;2022-12-01T05:09:29;5.47;;;4.18;;
18820;SDS011;9539;59.332;18.034;2022-12-01T05:11:57;6.90;;;4.82;;
18820;SDS011;9539;59.332;18.034;2022-12-01T05:14:24;5.95;;;4.22;;
18820;SDS011;9539;59.332;18.034;2022-12-01T05:16:51;5.95;;;4.68;;
18820;SDS011;9539;59.332;18.034;2022-12-01T05:19:19;5.43;;;4.75;;
18820;SDS011;9539;59.332;18.034;2022-12-01T05:22:03;6.32;;;4.78;;
18820;SDS011;9539;59.332;18.034;2022-12-01T05:24:29;5.07;;;4.30;;
18820;SDS011;9539;59.332;18.034;2022-12-01T05:26:58;7.07;;;4.65;;
18820;SDS011;9539;59.332;18.034;2022-12-01T05:29:24;5.35;;;4.70;;
18820;SDS011;9539;59.332;18.034;2022-12-01T05:31:51;6.65;;;4.10;;
18820;SDS011;9539;59.332;18.034;2022-12-01T05:34:18;5.25;;;4.47;;
18820;SDS011;9539;59.332;18.034;2022-12-01T05:36:45;7.50;;;4.72;;
18820;SDS011;9539;59.332;18.034;2022-12-01T05:39:11;5.20;;;4.50;;
18820;SDS011;9539;59.332;18.034;2022-12-01T05:41:38;5.82;;;5.18;;
18820;SDS011;9539;59.332;18.034;2022-12-01T05:44:06;5.05;;;4.55;;
18820;SDS011;9539;59.332;18.034;2022-12-01T05:46:33;5.88;;;4.57;;
18820;SDS011;9539;59.332;18.034;2022-12-01T05:49:00;5.28;;;4.47;;
18820;SDS011;9539;59.332;18.034;2022-12-01T05:51:27;4.70;;;4.20;;
18820;SDS011;9539;59.332;18.034;2022-12-01T05:53:53;5.05;;;4.30;;
18820;SDS011;9539;59.332;18.034;2022-12-01T05:56:20;7.20;;;4.40;;
18820;SDS011;9539;59.332;18.034;2022-12-01T05:58:47;6.45;;;4.63;;
18820;SDS011;9539;59.332;18.034;2022-12-01T06:01:15;5.22;;;4.72;;
18820;SDS011;9539;59.332;18.034;2022-12-01T06:03:42;5.13;;;4.63;;
18820;SDS011;9539;59.332;18.034;2022-12-01T06:06:09;6.10;;;4.43;;
18820;SDS011;9539;59.332;18.034;2022-12-01T06:08:35;5.05;;;4.55;;
18820;SDS011;9539;59.332;18.034;2022-12-01T06:11:02;5.47;;;4.75;;
18820;SDS011;9539;59.332;18.034;2022-12-01T06:13:29;5.97;;;4.70;;
18820;SDS011;9539;59.332;18.034;2022-12-01T06:15:56;5.10;;;4.40;;
18820;SDS011;9539;59.332;18.034;2022-12-01T06:18:26;6.32;;;4.63;;
18820;SDS011;9539;59.332;18.034;2022-12-01T06:20:54;5.88;;;4.95;;
18820;SDS011;9539;59.332;18.034;2022-12-01T06:23:21;5.47;;;4.65;;
18820;SDS011;9539;59.332;18.034;2022-12-01T06:25:48;6.80;;;5.20;;
18820;SDS011;9539;59.332;18.034;2022-12-01T06:28:15;7.57;;;5.30;;
18820;SDS011;9539;59.332;18.034;2022-12-01T06:30:42;5.78;;;5.18;;
18820;SDS011;9539;59.332;18.034;2022-12-01T06:33:09;5.80;;;5.18;;
18820;SDS011;9539;59.332;18.034;2022-12-01T06:35:37;7.15;;;5.20;;
18820;SDS011;9539;59.332;18.034;2022-12-01T06:38:04;7.32;;;5.30;;
18820;SDS011;9539;59.332;18.034;2022-12-01T06:40:31;6.72;;;5.18;;
18820;SDS011;9539;59.332;18.034;2022-12-01T06:42:58;6.72;;;5.53;;
18820;SDS011;9539;59.332;18.034;2022-12-01T06:45:27;9.10;;;5.45;;
18820;SDS011;9539;59.332;18.034;2022-12-01T06:47:54;11.70;;;5.75;;
18820;SDS011;9539;59.332;18.034;2022-12-01T06:50:21;8.35;;;5.80;;
18820;SDS011;9539;59.332;18.034;2022-12-01T06:52:49;7.20;;;6.00;;
18820;SDS011;9539;59.332;18.034;2022-12-01T06:55:16;8.80;;;5.70;;
18820;SDS011;9539;59.332;18.034;2022-12-01T06:57:43;8.60;;;6.35;;
18820;SDS011;9539;59.332;18.034;2022-12-01T07:00:10;8.32;;;5.95;;
18820;SDS011;9539;59.332;18.034;2022-12-01T07:02:38;7.57;;;5.30;;
18820;SDS011;9539;59.332;18.034;2022-12-01T07:05:05;7.95;;;6.00;;
18820;SDS011;9539;59.332;18.034;2022-12-01T07:07:33;8.73;;;5.93;;
18820;SDS011;9539;59.332;18.034;2022-12-01T07:10:02;10.52;;;6.38;;
18820;SDS011;9539;59.332;18.034;2022-12-01T07:12:30;8.50;;;5.70;;
18820;SDS011;9539;59.332;18.034;2022-12-01T07:14:57;9.82;;;6.00;;
18820;SDS011;9539;59.332;18.034;2022-12-01T07:17:24;8.68;;;5.40;;
18820;SDS011;9539;59.332;18.034;2022-12-01T07:19:51;7.05;;;5.60;;
18820;SDS011;9539;59.332;18.034;2022-12-01T07:22:18;9.02;;;5.72;;
18820;SDS011;9539;59.332;18.034;2022-12-01T07:24:44;8.20;;;5.55;;
18820;SDS011;9539;59.332;18.034;2022-12-01T07:27:13;7.95;;;5.47;;
18820;SDS011;9539;59.332;18.034;2022-12-01T07:29:39;6.25;;;5.43;;
18820;SDS011;9539;59.332;18.034;2022-12-01T07:32:06;6.28;;;5.15;;
18820;SDS011;9539;59.332;18.034;2022-12-01T07:34:33;6.05;;;5.05;;
18820;SDS011;9539;59.332;18.034;2022-12-01T07:37:00;8.25;;;5.00;;
18820;SDS011;9539;59.332;18.034;2022-12-01T07:39:26;7.20;;;5.38;;
18820;SDS011;9539;59.332;18.034;2022-12-01T07:41:54;9.02;;;4.80;;
18820;SDS011;9539;59.332;18.034;2022-12-01T07:44:22;8.55;;;5.10;;
18820;SDS011;9539;59.332;18.034;2022-12-01T07:46:49;5.25;;;4.72;;
18820;SDS011;9539;59.332;18.034;2022-12-01T07:49:15;6.22;;;4.28;;
18820;SDS011;9539;59.332;18.034;2022-12-01T07:51:42;5.13;;;4.25;;
18820;SDS011;9539;59.332;18.034;2022-12-01T07:54:09;8.52;;;4.05;;
18820;SDS011;9539;59.332;18.034;2022-12-01T07:56:38;5.30;;;4.80;;
18820;SDS011;9539;59.332;18.034;2022-12-01T07:59:05;6.50;;;4.40;;
18820;SDS011;9539;59.332;18.034;2022-12-01T08:01:33;7.55;;;4.45;;
18820;SDS011;9539;59.332;18.034;2022-12-01T08:03:59;5.38;;;4.38;;
18820;SDS011;9539;59.332;18.034;2022-12-01T08:06:26;5.53;;;4.60;;
18820;SDS011;9539;59.332;18.034;2022-12-01T08:08:53;5.60;;;4.43;;
18820;SDS011;9539;59.332;18.034;2022-12-01T08:11:21;5.68;;;4.63;;
18820;SDS011;9539;59.332;18.034;2022-12-01T08:13:49;5.35;;;4.30;;
18820;SDS011;9539;59.332;18.034;2022-12-01T08:16:18;5.25;;;4.47;;
18820;SDS011;9539;59.332;18.034;2022-12-01T08:18:48;8.88;;;5.47;;
18820;SDS011;9539;59.332;18.034;2022-12-01T08:21:16;5.70;;;4.22;;
18820;SDS011;9539;59.332;18.034;2022-12-01T08:23:44;6.53;;;4.72;;
18820;SDS011;9539;59.332;18.034;2022-12-01T08:26:12;6.88;;;4.90;;
18820;SDS011;9539;59.332;18.034;2022-12-01T08:28:41;7.47;;;4.85;;
18820;SDS011;9539;59.332;18.034;2022-12-01T08:31:09;6.72;;;4.57;;
18820;SDS011;9539;59.332;18.034;2022-12-01T08:33:37;5.55;;;4.53;;
18820;SDS011;9539;59.332;18.034;2022-12-01T08:36:05;6.40;;;4.55;;
18820;SDS011;9539;59.332;18.034;2022-12-01T08:38:33;7.07;;;4.70;;
18820;SDS011;9539;59.332;18.034;2022-12-01T08:41:00;6.57;;;4.85;;
18820;SDS011;9539;59.332;18.034;2022-12-01T08:43:28;5.45;;;4.38;;
18820;SDS011;9539;59.332;18.034;2022-12-01T08:45:56;7.22;;;4.78;;
18820;SDS011;9539;59.332;18.034;2022-12-01T08:48:24;8.63;;;4.40;;
18820;SDS011;9539;59.332;18.034;2022-12-01T08:50:59;7.28;;;5.10;;
18820;SDS011;9539;59.332;18.034;2022-12-01T08:53:28;9.55;;;5.03;;
18820;SDS011;9539;59.332;18.034;2022-12-01T08:55:57;7.05;;;4.78;;
18820;SDS011;9539;59.332;18.034;2022-12-01T08:58:25;6.13;;;4.15;;
18820;SDS011;9539;59.332;18.034;2022-12-01T09:00:51;8.57;;;5.38;;
18820;SDS011;9539;59.332;18.034;2022-12-01T09:03:18;6.75;;;4.68;;
18820;SDS011;9539;59.332;18.034;2022-12-01T09:05:45;6.20;;;4.47;;
18820;SDS011;9539;59.332;18.034;2022-12-01T09:08:12;5.68;;;4.13;;
18820;SDS011;9539;59.332;18.034;2022-12-01T09:10:59;5.32;;;3.88;;
18820;SDS011;9539;59.332;18.034;2022-12-01T09:13:28;5.53;;;4.22;;
18820;SDS011;9539;59.332;18.034;2022-12-01T09:15:56;8.57;;;5.07;;
18820;SDS011;9539;59.332;18.034;2022-12-01T09:18:23;5.63;;;4.72;;
18820;SDS011;9539;59.332;18.034;2022-12-01T09:20:50;6.55;;;4.63;;
18820;SDS011;9539;59.332;18.034;2022-12-01T09:23:17;5.10;;;3.80;;
18820;SDS011;9539;59.332;18.034;2022-12-01T09:25:44;7.60;;;4.20;;
18820;SDS011;9539;59.332;18.034;2022-12-01T09:28:12;4.43;;;3.90;;
18820;SDS011;9539;59.332;18.034;2022-12-01T09:30:39;5.43;;;4.18;;
18820;SDS011;9539;59.332;18.034;2022-12-01T09:33:07;5.35;;;4.05;;
18820;SDS011;9539;59.332;18.034;2022-12-01T09:35:34;6.45;;;4.10;;
18820;SDS011;9539;59.332;18.034;2022-12-01T09:38:00;6.43;;;4.57;;
18820;SDS011;9539;59.332;18.034;2022-12-01T09:40:29;7.63;;;4.00;;
18820;SDS011;9539;59.332;18.034;2022-12-01T09:42:58;5.38;;;4.40;;
18820;SDS011;9539;59.332;18.034;2022-12-01T09:45:30;5.13;;;4.00;;
18820;SDS011;9539;59.332;18.034;2022-12-01T09:48:01;17.02;;;5.57;;
18820;SDS011;9539;59.332;18.034;2022-12-01T09:50:30;5.78;;;4.63;;
18820;SDS011;9539;59.332;18.034;2022-12-01T09:52:58;6.43;;;4.72;;
18820;SDS011;9539;59.332;18.034;2022-12-01T09:55:29;7.28;;;4.65;;
18820;SDS011;9539;59.332;18.034;2022-12-01T09:57:57;11.70;;;5.18;;
18820;SDS011;9539;59.332;18.034;2022-12-01T10:00:26;7.63;;;5.00;;
18820;SDS011;9539;59.332;18.034;2022-12-01T10:02:58;6.65;;;4.95;;
18820;SDS011;9539;59.332;18.034;2022-12-01T10:05:33;7.20;;;4.95;;
18820;SDS011;9539;59.332;18.034;2022-12-01T10:08:09;5.93;;;4.57;;
18820;SDS011;9539;59.332;18.034;2022-12-01T10:10:41;6.63;;;4.68;;
18820;SDS011;9539;59.332;18.034;2022-12-01T10:13:13;7.32;;;5.25;;
18820;SDS011;9539;59.332;18.034;2022-12-01T10:15:44;9.52;;;5.15;;
18820;SDS011;9539;59.332;18.034;2022-12-01T10:18:21;5.95;;;5.00;;
18820;SDS011;9539;59.332;18.034;2022-12-01T10:21:01;5.70;;;4.47;;
18820;SDS011;9539;59.332;18.034;2022-12-01T10:26:30;7.10;;;5.60;;
18820;SDS011;9539;59.332;18.034;2022-12-01T10:29:11;7.75;;;5.68;;
18820;SDS011;9539;59.332;18.034;2022-12-01T10:31:45;7.10;;;5.43;;
18820;SDS011;9539;59.332;18.034;2022-12-01T10:34:22;8.50;;;5.13;;
18820;SDS011;9539;59.332;18.034;2022-12-01T10:36:51;7.70;;;4.85;;
18820;SDS011;9539;59.332;18.034;2022-12-01T10:39:18;9.07;;;5.10;;
18820;SDS011;9539;59.332;18.034;2022-12-01T10:41:51;8.73;;;5.25;;
18820;SDS011;9539;59.332;18.034;2022-12-01T10:44:21;6.45;;;4.85;;
18820;SDS011;9539;59.332;18.034;2022-12-01T10:46:48;7.03;;;5.00;;
18820;SDS011;9539;59.332;18.034;2022-12-01T10:49:18;9.10;;;5.35;;
18820;SDS011;9539;59.332;18.034;2022-12-01T10:51:58;6.68;;;4.75;;
18820;SDS011;9539;59.332;18.034;2022-12-01T10:54:30;11.05;;;5.47;;
18820;SDS011;9539;59.332;18.034;2022-12-01T10:56:59;7.50;;;5.22;;
18820;SDS011;9539;59.332;18.034;2022-12-01T10:59:29;5.90;;;4.80;;
18820;SDS011;9539;59.332;18.034;2022-12-01T11:01:59;10.70;;;5.28;;
18820;SDS011;9539;59.332;18.034;2022-12-01T11:04:34;9.60;;;5.50;;
18820;SDS011;9539;59.332;18.034;2022-12-01T11:07:13;7.78;;;4.90;;
18820;SDS011;9539;59.332;18.034;2022-12-01T11:09:43;6.88;;;4.93;;
18820;SDS011;9539;59.332;18.034;2022-12-01T11:12:12;8.40;;;5.78;;
18820;SDS011;9539;59.332;18.034;2022-12-01T11:14:42;8.27;;;5.93;;
18820;SDS011;9539;59.332;18.034;2022-12-01T11:17:14;9.93;;;6.25;;
18820;SDS011;9539;59.332;18.034;2022-12-01T11:19:51;16.95;;;7.45;;
18820;SDS011;9539;59.332;18.034;2022-12-01T11:22:19;7.20;;;5.70;;
18820;SDS011;9539;59.332;18.034;2022-12-01T11:24:58;7.10;;;5.40;;
18820;SDS011;9539;59.332;18.034;2022-12-01T11:27:28;8.40;;;5.70;;
18820;SDS011;9539;59.332;18.034;2022-12-01T11:29:57;9.45;;;5.85;;
18820;SDS011;9539;59.332;18.034;2022-12-01T11:32:29;6.55;;;5.13;;
18820;SDS011;9539;59.332;18.034;2022-12-01T11:34:59;6.93;;;5.50;;
18820;SDS011;9539;59.332;18.034;2022-12-01T11:37:29;6.45;;;5.63;;
18820;SDS011;9539;59.332;18.034;2022-12-01T11:40:05;6.60;;;5.30;;
18820;SDS011;9539;59.332;18.034;2022-12-01T11:42:34;7.40;;;5.40;;
18820;SDS011;9539;59.332;18.034;2022-12-01T11:45:04;10.52;;;5.93;;
18820;SDS011;9539;59.332;18.034;2022-12-01T11:47:34;8.45;;;5.00;;
18820;SDS011;9539;59.332;18.034;2022-12-01T11:50:03;9.45;;;5.60;;
18820;SDS011;9539;59.332;18.034;2022-12-01T11:52:49;10.18;;;5.80;;
18820;SDS011;9539;59.332;18.034;2022-12-01T11:55:20;7.90;;;5.70;;
18820;SDS011;9539;59.332;18.034;2022-12-01T11:57:48;6.65;;;5.07;;
18820;SDS011;9539;59.332;18.034;2022-12-01T12:00:18;9.55;;;5.13;;
18820;SDS011;9539;59.332;18.034;2022-12-01T12:02:51;8.73;;;5.25;;
18820;SDS011;9539;59.332;18.034;2022-12-01T12:05:38;9.88;;;5.85;;
18820;SDS011;9539;59.332;18.034;2022-12-01T12:08:17;10.23;;;4.93;;
18820;SDS011;9539;59.332;18.034;2022-12-01T12:10:57;8.68;;;5.97;;
18820;SDS011;9539;59.332;18.034;2022-12-01T12:13:43;5.57;;;4.38;;
18820;SDS011;9539;59.332;18.034;2022-12-01T12:16:33;8.20;;;5.88;;
18820;SDS011;9539;59.332;18.034;2022-12-01T12:19:23;6.43;;;4.75;;
18820;SDS011;9539;59.332;18.034;2022-12-01T12:22:06;9.10;;;5.70;;
18820;SDS011;9539;59.332;18.034;2022-12-01T12:24:48;8.80;;;5.53;;
18820;SDS011;9539;59.332;18.034;2022-12-01T12:27:28;7.18;;;4.78;;
18820;SDS011;9539;59.332;18.034;2022-12-01T12:30:14;6.72;;;5.15;;
18820;SDS011;9539;59.332;18.034;2022-12-01T12:32:50;5.97;;;4.80;;
18820;SDS011;9539;59.332;18.034;2022-12-01T12:35:36;7.10;;;5.18;;
18820;SDS011;9539;59.332;18.034;2022-12-01T12:38:15;7.95;;;5.15;;
18820;SDS011;9539;59.332;18.034;2022-12-01T12:40:52;7.03;;;5.40;;
18820;SDS011;9539;59.332;18.034;2022-12-01T12:43:23;7.63;;;5.28;;
18820;SDS011;9539;59.332;18.034;2022-12-01T12:46:01;7.78;;;5.50;;
18820;SDS011;9539;59.332;18.034;2022-12-01T12:48:35;6.80;;;5.65;;
18820;SDS011;9539;59.332;18.034;2022-12-01T12:51:17;8.13;;;5.97;;
18820;SDS011;9539;59.332;18.034;2022-12-01T12:53:50;7.32;;;5.38;;
18820;SDS011;9539;59.332;18.034;2022-12-01T12:56:24;5.13;;;4.20;;
18820;SDS011;9539;59.332;18.034;2022-12-01T12:58:54;7.47;;;5.07;;
18820;SDS011;9539;59.332;18.034;2022-12-01T13:01:25;6.97;;;4.88;;
18820;SDS011;9539;59.332;18.034;2022-12-01T13:03:57;6.60;;;4.93;;
18820;SDS011;9539;59.332;18.034;2022-12-01T13:06:28;7.32;;;4.97;;
18820;SDS011;9539;59.332;18.034;2022-12-01T13:09:02;7.72;;;5.78;;
18820;SDS011;9539;59.332;18.034;2022-12-01T13:11:35;8.52;;;6.00;;
18820;SDS011;9539;59.332;18.034;2022-12-01T13:14:12;6.93;;;4.82;;
18820;SDS011;9539;59.332;18.034;2022-12-01T13:16:46;8.13;;;5.57;;
18820;SDS011;9539;59.332;18.034;2022-12-01T13:19:16;6.68;;;5.18;;
18820;SDS011;9539;59.332;18.034;2022-12-01T13:21:48;9.68;;;6.55;;
18820;SDS011;9539;59.332;18.034;2022-12-01T13:24:18;8.43;;;6.25;;
18820;SDS011;9539;59.332;18.034;2022-12-01T13:26:49;11.48;;;6.63;;
18820;SDS011;9539;59.332;18.034;2022-12-01T13:29:20;11.15;;;7.38;;
18820;SDS011;9539;59.332;18.034;2022-12-01T13:31:48;9.93;;;6.70;;
18820;SDS011;9539;59.332;18.034;2022-12-01T13:34:23;11.43;;;6.47;;
18820;SDS011;9539;59.332;18.034;2022-12-01T13:36:52;11.88;;;6.45;;
18820;SDS011;9539;59.332;18.034;2022-12-01T13:39:22;8.05;;;5.68;;
18820;SDS011;9539;59.332;18.034;2022-12-01T13:41:57;12.10;;;6.60;;
18820;SDS011;9539;59.332;18.034;2022-12-01T13:44:27;9.90;;;5.80;;
18820;SDS011;9539;59.332;18.034;2022-12-01T13:47:01;4.93;;;3.78;;
18820;SDS011;9539;59.332;18.034;2022-12-01T13:49:34;9.55;;;5.20;;
18820;SDS011;9539;59.332;18.034;2022-12-01T13:52:16;9.13;;;5.97;;
18820;SDS011;9539;59.332;18.034;2022-12-01T14:04:17;7.70;;;4.20;;
18820;SDS011;9539;59.332;18.034;2022-12-01T14:06:49;5.97;;;4.13;;
18820;SDS011;9539;59.332;18.034;2022-12-01T14:09:40;6.47;;;4.35;;
18820;SDS011;9539;59.332;18.034;2022-12-01T14:12:15;8.30;;;4.10;;
18820;SDS011;9539;59.332;18.034;2022-12-01T14:14:47;6.60;;;3.90;;
18820;SDS011;9539;59.332;18.034;2022-12-01T14:17:25;8.07;;;4.00;;
18820;SDS011;9539;59.332;18.034;2022-12-01T14:19:55;7.05;;;4.68;;
18820;SDS011;9539;59.332;18.034;2022-12-01T14:22:33;7.00;;;5.40;;
18820;SDS011;9539;59.332;18.034;2022-12-01T14:25:03;7.57;;;4.72;;
18820;SDS011;9539;59.332;18.034;2022-12-01T14:27:37;6.03;;;4.47;;
18820;SDS011;9539;59.332;18.034;2022-12-01T14:33:40;10.63;;;5.88;;
18820;SDS011;9539;59.332;18.034;2022-12-01T14:36:12;7.93;;;5.38;;
18820;SDS011;9539;59.332;18.034;2022-12-01T14:38:46;7.65;;;5.65;;
18820;SDS011;9539;59.332;18.034;2022-12-01T14:41:17;10.63;;;6.07;;
18820;SDS011;9539;59.332;18.034;2022-12-01T14:43:49;6.65;;;5.13;;
18820;SDS011;9539;59.332;18.034;2022-12-01T14:46:30;8.02;;;5.80;;
18820;SDS011;9539;59.332;18.034;2022-12-01T14:49:04;9.75;;;6.30;;
18820;SDS011;9539;59.332;18.034;2022-12-01T14:51:39;10.00;;;6.32;;
18820;SDS011;9539;59.332;18.034;2022-12-01T14:54:13;10.85;;;7.10;;
18820;SDS011;9539;59.332;18.034;2022-12-01T14:56:44;8.57;;;6.50;;
18820;SDS011;9539;59.332;18.034;2022-12-01T14:59:18;11.27;;;7.10;;
18820;SDS011;9539;59.332;18.034;2022-12-01T15:01:48;10.75;;;7.78;;
18820;SDS011;9539;59.332;18.034;2022-12-01T15:04:16;9.60;;;6.22;;
18820;SDS011;9539;59.332;18.034;2022-12-01T15:06:43;8.98;;;6.60;;
18820;SDS011;9539;59.332;18.034;2022-12-01T15:09:12;10.25;;;7.07;;
18820;SDS011;9539;59.332;18.034;2022-12-01T15:11:48;11.07;;;6.88;;
18820;SDS011;9539;59.332;18.034;2022-12-01T15:14:27;12.88;;;7.32;;
18820;SDS011;9539;59.332;18.034;2022-12-01T15:16:57;11.20;;;7.72;;
18820;SDS011;9539;59.332;18.034;2022-12-01T15:19:31;9.40;;;6.70;;
18820;SDS011;9539;59.332;18.034;2022-12-01T15:22:02;10.20;;;6.70;;
18820;SDS011;9539;59.332;18.034;2022-12-01T15:24:31;10.98;;;7.15;;
18820;SDS011;9539;59.332;18.034;2022-12-01T15:26:58;10.50;;;7.85;;
18820;SDS011;9539;59.332;18.034;2022-12-01T15:29:27;12.88;;;7.93;;
18820;SDS011;9539;59.332;18.034;2022-12-01T15:31:56;10.00;;;6.78;;